createdAt,value
2019-03-02T00:00:07.675Z,83.00
2019-03-02T00:01:05.629Z,82.90
2019-03-02T00:02:08.388Z,82.80
2019-03-02T00:03:07.844Z,82.80
2019-03-02T00:04:10.999Z,82.80
2019-03-02T00:05:05.237Z,82.90
2019-03-02T00:06:07.850Z,83.00
2019-03-02T00:07:12.171Z,82.90
2019-03-02T00:08:15.583Z,82.60
2019-03-02T00:09:08.127Z,82.50
2019-03-02T00:10:09.899Z,82.50
2019-03-02T00:11:07.797Z,82.70
2019-03-02T00:12:05.727Z,82.60
2019-03-02T00:13:08.952Z,82.60
2019-03-02T00:14:07.613Z,82.50
2019-03-02T00:15:08.180Z,82.60
2019-03-02T00:16:08.538Z,82.60
2019-03-02T00:17:05.819Z,82.60
2019-03-02T00:18:08.590Z,82.80
2019-03-02T00:19:07.886Z,82.80
2019-03-02T00:20:05.052Z,82.80
2019-03-02T00:21:05.170Z,82.80
2019-03-02T00:22:07.950Z,83.00
2019-03-02T00:23:07.771Z,83.00
2019-03-02T00:24:05.766Z,83.10
2019-03-02T00:25:05.967Z,83.00
2019-03-02T00:26:10.159Z,83.00
2019-03-02T00:27:05.556Z,82.90
2019-03-02T00:28:08.236Z,82.70
2019-03-02T00:29:11.886Z,82.70
2019-03-02T00:30:05.041Z,82.70
2019-03-02T00:31:05.278Z,82.80
2019-03-02T00:32:09.491Z,82.90
2019-03-02T00:33:08.110Z,83.00
2019-03-02T00:34:05.096Z,83.00
2019-03-02T00:35:08.224Z,83.00
2019-03-02T00:36:05.381Z,82.90
2019-03-02T00:37:07.992Z,82.90
2019-03-02T00:38:10.052Z,82.90
2019-03-02T00:39:19.051Z,82.80
2019-03-02T00:40:05.194Z,82.80
2019-03-02T00:41:07.831Z,82.70
2019-03-02T00:42:05.061Z,82.80
2019-03-02T00:43:05.294Z,82.70
2019-03-02T00:44:05.499Z,82.90
2019-03-02T00:45:14.013Z,82.90
2019-03-02T00:46:05.281Z,83.00
2019-03-02T00:47:05.409Z,82.90
2019-03-02T00:48:10.998Z,82.90
2019-03-02T00:49:05.614Z,82.90
2019-03-02T00:50:08.468Z,83.10
2019-03-02T00:51:11.164Z,83.10
2019-03-02T00:52:05.442Z,83.10
2019-03-02T00:53:05.575Z,83.10
2019-03-02T00:54:11.310Z,83.20
2019-03-02T00:55:05.665Z,83.20
2019-03-02T00:56:09.119Z,83.30
2019-03-02T00:57:05.358Z,83.30
2019-03-02T00:58:08.012Z,83.20
2019-03-02T00:59:05.145Z,83.20
2019-03-02T01:00:05.211Z,83.10
2019-03-02T01:01:07.919Z,83.00
2019-03-02T01:02:06.100Z,83.10
2019-03-02T01:03:07.807Z,82.90
2019-03-02T01:04:05.787Z,82.90
2019-03-02T01:05:05.974Z,82.80
2019-03-02T01:06:05.092Z,82.80
2019-03-02T01:07:07.723Z,82.80
2019-03-02T01:08:08.203Z,82.80
2019-03-02T01:10:07.908Z,82.80
2019-03-02T01:10:13.541Z,82.80
2019-03-02T01:11:05.544Z,82.70
2019-03-02T01:13:05.068Z,82.80
2019-03-02T01:14:05.206Z,82.70
2019-03-02T01:15:09.257Z,82.80
2019-03-02T01:16:05.404Z,82.70
2019-03-02T01:17:05.550Z,82.70
2019-03-02T01:18:07.517Z,82.90
2019-03-02T01:19:05.635Z,82.80
2019-03-02T01:20:05.693Z,82.80
2019-03-02T01:21:05.791Z,82.90
2019-03-02T01:22:05.881Z,82.90
2019-03-02T01:23:04.973Z,82.90
2019-03-02T01:24:05.206Z,83.00
2019-03-02T01:25:14.383Z,83.20
2019-03-02T01:26:08.052Z,82.90
2019-03-02T01:27:05.045Z,82.90
2019-03-02T01:28:09.647Z,82.90
2019-03-02T01:29:05.808Z,82.80
2019-03-02T01:30:08.674Z,82.90
2019-03-02T01:31:06.464Z,82.80
2019-03-02T01:32:05.665Z,82.90
2019-03-02T01:33:05.795Z,82.90
2019-03-02T01:34:08.745Z,83.00
2019-03-02T01:35:05.904Z,83.00
2019-03-02T01:36:07.540Z,83.10
2019-03-02T01:37:08.989Z,83.10
2019-03-02T01:38:07.596Z,83.10
2019-03-02T01:39:08.177Z,83.10
2019-03-02T01:40:12.723Z,83.10
2019-03-02T01:41:08.243Z,83.10
2019-03-02T01:42:05.244Z,83.10
2019-03-02T01:43:06.174Z,83.10
2019-03-02T01:44:05.341Z,83.20
2019-03-02T01:45:05.479Z,83.20
2019-03-02T01:46:05.610Z,83.20
2019-03-02T01:47:05.802Z,83.20
2019-03-02T01:48:06.017Z,83.20
2019-03-02T01:49:05.157Z,83.20
2019-03-02T01:50:11.864Z,83.10
2019-03-02T01:51:05.020Z,83.10
2019-03-02T01:52:05.123Z,83.10
2019-03-02T01:53:09.859Z,83.00
2019-03-02T01:54:05.621Z,83.00
2019-03-02T01:55:08.428Z,83.20
2019-03-02T01:56:07.043Z,83.10
2019-03-02T01:57:07.813Z,83.30
2019-03-02T01:58:11.022Z,83.30
2019-03-02T01:59:05.228Z,83.30
2019-03-02T02:00:05.444Z,83.30
2019-03-02T02:01:05.588Z,83.30
2019-03-02T02:02:08.348Z,83.20
2019-03-02T02:03:12.010Z,83.20
2019-03-02T02:04:05.478Z,83.20
2019-03-02T02:05:05.681Z,83.30
2019-03-02T02:06:08.715Z,83.30
2019-03-02T02:07:05.906Z,83.30
2019-03-02T02:08:07.508Z,83.30
2019-03-02T02:09:06.813Z,83.30
2019-03-02T02:10:07.496Z,83.20
2019-03-02T02:11:05.598Z,83.30
2019-03-02T02:12:08.239Z,83.10
2019-03-02T02:13:07.176Z,83.10
2019-03-02T02:14:05.404Z,83.20
2019-03-02T02:15:05.648Z,83.30
2019-03-02T02:16:07.134Z,83.30
2019-03-02T02:17:05.414Z,83.30
2019-03-02T02:18:05.509Z,83.30
2019-03-02T02:19:08.122Z,83.30
2019-03-02T02:20:05.205Z,83.30
2019-03-02T02:21:05.372Z,83.30
2019-03-02T02:22:05.516Z,83.20
2019-03-02T02:23:05.671Z,83.20
2019-03-02T02:24:08.324Z,83.20
2019-03-02T02:25:05.421Z,83.20
2019-03-02T02:26:11.213Z,83.10
2019-03-02T02:27:07.948Z,83.30
2019-03-02T02:28:06.085Z,83.30
2019-03-02T02:29:09.516Z,83.30
2019-03-02T02:30:07.600Z,83.20
2019-03-02T02:31:07.909Z,83.30
2019-03-02T02:32:05.227Z,83.20
2019-03-02T02:33:06.366Z,83.30
2019-03-02T02:34:05.577Z,83.20
2019-03-02T02:35:08.297Z,83.30
2019-03-02T02:36:05.311Z,83.30
2019-03-02T02:37:05.514Z,83.20
2019-03-02T02:38:15.755Z,83.10
2019-03-02T02:39:05.094Z,83.10
2019-03-02T02:40:12.439Z,83.20
2019-03-02T02:41:08.344Z,83.20
2019-03-02T02:42:07.119Z,83.20
2019-03-02T02:43:05.300Z,83.20
2019-03-02T02:44:08.033Z,83.20
2019-03-02T02:45:15.330Z,83.20
2019-03-02T02:46:05.555Z,83.20
2019-03-02T02:47:12.568Z,83.30
2019-03-02T02:48:05.833Z,83.30
2019-03-02T02:49:10.080Z,83.40
2019-03-02T02:50:08.149Z,83.40
2019-03-02T02:51:12.342Z,83.40
2019-03-02T02:52:05.590Z,83.40
2019-03-02T02:53:08.599Z,83.50
2019-03-02T02:54:08.283Z,83.40
2019-03-02T02:55:07.750Z,83.40
2019-03-02T02:56:05.942Z,83.40
2019-03-02T02:57:05.099Z,83.40
2019-03-02T02:58:05.406Z,83.40
2019-03-02T02:59:05.580Z,83.30
2019-03-02T03:00:05.877Z,83.40
2019-03-02T03:01:05.030Z,83.40
2019-03-02T03:02:10.705Z,83.30
2019-03-02T03:03:05.184Z,83.30
2019-03-02T03:04:07.779Z,83.40
2019-03-02T03:05:15.087Z,83.40
2019-03-02T03:06:05.518Z,83.30
2019-03-02T03:07:12.586Z,83.30
2019-03-02T03:08:07.691Z,83.50
2019-03-02T03:09:11.459Z,83.50
2019-03-02T03:10:08.263Z,83.40
2019-03-02T03:11:08.262Z,83.50
2019-03-02T03:12:05.600Z,83.60
2019-03-02T03:13:05.779Z,83.60
2019-03-02T03:14:05.900Z,83.60
2019-03-02T03:15:05.122Z,83.60
2019-03-02T03:16:05.209Z,83.60
2019-03-02T03:17:07.898Z,83.50
2019-03-02T03:18:14.375Z,83.80
2019-03-02T03:19:05.707Z,83.50
2019-03-02T03:20:11.861Z,83.60
2019-03-02T03:21:07.619Z,83.60
2019-03-02T03:22:09.135Z,83.60
2019-03-02T03:23:05.404Z,83.70
2019-03-02T03:24:05.795Z,83.70
2019-03-02T03:25:08.461Z,83.70
2019-03-02T03:26:07.939Z,83.70
2019-03-02T03:27:13.188Z,83.70
2019-03-02T03:28:08.333Z,83.80
2019-03-02T03:29:11.264Z,83.80
2019-03-02T03:30:10.573Z,83.80
2019-03-02T03:31:05.715Z,83.80
2019-03-02T03:32:12.211Z,83.70
2019-03-02T03:33:05.656Z,83.80
2019-03-02T03:34:08.367Z,83.80
2019-03-02T03:35:19.200Z,83.80
2019-03-02T03:36:05.654Z,83.80
2019-03-02T03:37:12.995Z,83.80
2019-03-02T03:38:05.733Z,83.80
2019-03-02T03:39:13.283Z,83.80
2019-03-02T03:40:05.319Z,83.80
2019-03-02T03:41:07.022Z,83.80
2019-03-02T03:42:07.666Z,83.80
2019-03-02T03:43:08.347Z,83.90
2019-03-02T03:44:08.106Z,83.90
2019-03-02T03:45:06.222Z,83.90
2019-03-02T03:46:05.427Z,83.90
2019-03-02T03:47:09.703Z,83.90
2019-03-02T03:48:05.813Z,83.90
2019-03-02T03:49:07.542Z,84.00
2019-03-02T03:50:15.379Z,83.90
2019-03-02T03:51:05.691Z,83.90
2019-03-02T03:52:10.946Z,83.90
2019-03-02T03:53:05.138Z,84.00
2019-03-02T03:54:09.007Z,84.10
2019-03-02T03:55:07.812Z,84.20
2019-03-02T03:56:05.987Z,84.20
2019-03-02T03:57:05.174Z,84.20
2019-03-02T03:58:05.325Z,84.10
2019-03-02T03:59:05.552Z,84.20
2019-03-02T04:00:10.839Z,84.20
2019-03-02T04:01:16.682Z,84.20
2019-03-02T04:02:05.484Z,84.20
2019-03-02T04:03:13.509Z,84.20
2019-03-02T04:04:05.074Z,84.20
2019-03-02T04:05:09.969Z,84.30
2019-03-02T04:06:05.232Z,84.20
2019-03-02T04:07:08.128Z,84.20
2019-03-02T04:08:07.832Z,84.30
2019-03-02T04:09:10.411Z,84.30
2019-03-02T04:10:05.488Z,84.30
2019-03-02T04:11:06.329Z,84.30
2019-03-02T04:12:07.062Z,84.30
2019-03-02T04:13:06.806Z,84.30
2019-03-02T04:14:05.903Z,84.40
2019-03-02T04:15:07.499Z,84.50
2019-03-02T04:16:05.463Z,84.50
2019-03-02T04:17:08.278Z,84.40
2019-03-02T04:18:05.368Z,84.40
2019-03-02T04:19:08.042Z,84.40
2019-03-02T04:20:12.638Z,84.50
2019-03-02T04:21:08.440Z,84.50
2019-03-02T04:22:08.043Z,84.50
2019-03-02T04:23:07.779Z,84.50
2019-03-02T04:24:05.839Z,84.50
2019-03-02T04:25:05.982Z,84.50
2019-03-02T04:26:07.689Z,84.50
2019-03-02T04:27:16.742Z,84.40
2019-03-02T04:28:05.028Z,84.40
2019-03-02T04:29:11.484Z,84.50
2019-03-02T04:30:05.807Z,84.40
2019-03-02T04:31:10.520Z,84.40
2019-03-02T04:32:08.210Z,84.60
2019-03-02T04:33:07.552Z,84.50
2019-03-02T04:34:05.791Z,84.60
2019-03-02T04:35:06.031Z,84.60
2019-03-02T04:36:11.160Z,84.50
2019-03-02T04:37:10.459Z,84.50
2019-03-02T04:38:05.512Z,84.50
2019-03-02T04:39:09.462Z,84.50
2019-03-02T04:40:07.815Z,84.60
2019-03-02T04:41:08.335Z,84.70
2019-03-02T04:42:05.323Z,84.70
2019-03-02T04:43:07.974Z,84.80
2019-03-02T04:44:07.630Z,84.80
2019-03-02T04:45:06.318Z,84.80
2019-03-02T04:46:07.942Z,84.80
2019-03-02T04:47:07.470Z,84.80
2019-03-02T04:48:05.564Z,84.70
2019-03-02T04:49:05.662Z,84.80
2019-03-02T04:50:05.498Z,84.80
2019-03-02T04:51:08.128Z,84.80
2019-03-02T04:52:07.608Z,84.80
2019-03-02T04:53:05.575Z,84.80
2019-03-02T04:54:05.736Z,84.90
2019-03-02T04:55:09.361Z,84.90
2019-03-02T04:56:05.088Z,85.00
2019-03-02T04:57:05.228Z,85.00
2019-03-02T04:58:08.553Z,84.90
2019-03-02T04:59:05.845Z,84.90
2019-03-02T05:00:07.503Z,84.90
2019-03-02T05:01:07.862Z,85.00
2019-03-02T05:02:07.554Z,85.00
2019-03-02T05:03:08.147Z,84.90
2019-03-02T05:04:05.294Z,84.90
2019-03-02T05:05:09.420Z,84.80
2019-03-02T05:06:08.077Z,84.90
2019-03-02T05:07:12.592Z,84.80
2019-03-02T05:08:06.716Z,84.80
2019-03-02T05:09:08.403Z,84.90
2019-03-02T05:10:05.432Z,84.90
2019-03-02T05:11:05.538Z,84.90
2019-03-02T05:12:05.623Z,84.80
2019-03-02T05:13:05.787Z,84.80
2019-03-02T05:14:05.898Z,84.80
2019-03-02T05:15:05.066Z,84.80
2019-03-02T05:16:05.195Z,84.80
2019-03-02T05:17:08.467Z,84.60
2019-03-02T05:18:05.682Z,84.80
2019-03-02T05:19:08.415Z,84.70
2019-03-02T05:20:06.425Z,84.70
2019-03-02T05:21:05.552Z,84.70
2019-03-02T05:22:05.651Z,84.70
2019-03-02T05:23:05.771Z,84.70
2019-03-02T05:24:10.193Z,84.60
2019-03-02T05:25:06.155Z,84.60
2019-03-02T05:26:08.024Z,84.60
2019-03-02T05:27:05.017Z,84.60
2019-03-02T05:28:08.090Z,84.60
2019-03-02T05:29:05.208Z,84.60
2019-03-02T05:30:05.289Z,84.60
2019-03-02T05:31:07.135Z,84.60
2019-03-02T05:32:05.440Z,84.60
2019-03-02T05:33:05.681Z,84.60
2019-03-02T05:34:06.277Z,84.60
2019-03-02T05:35:05.434Z,84.60
2019-03-02T05:36:07.957Z,84.60
2019-03-02T05:37:08.462Z,84.50
2019-03-02T05:38:05.445Z,84.50
2019-03-02T05:39:05.604Z,84.50
2019-03-02T05:40:05.755Z,84.40
2019-03-02T05:41:08.501Z,84.40
2019-03-02T05:42:05.507Z,84.40
2019-03-02T05:43:05.634Z,84.30
2019-03-02T05:44:08.225Z,84.30
2019-03-02T05:45:05.182Z,84.30
2019-03-02T05:46:05.449Z,84.30
2019-03-02T05:47:05.622Z,84.40
2019-03-02T05:48:06.595Z,84.40
2019-03-02T05:49:08.309Z,84.50
2019-03-02T05:50:05.306Z,84.50
2019-03-02T05:51:07.734Z,84.60
2019-03-02T05:52:05.048Z,84.60
2019-03-02T05:53:05.217Z,84.50
2019-03-02T05:54:07.808Z,84.50
2019-03-02T05:55:08.518Z,84.50
2019-03-02T05:56:05.536Z,84.50
2019-03-02T05:57:05.841Z,84.50
2019-03-02T05:58:07.596Z,84.50
2019-03-02T05:59:08.179Z,84.50
2019-03-02T06:00:07.769Z,84.40
2019-03-02T06:01:08.307Z,84.40
2019-03-02T06:02:07.777Z,84.40
2019-03-02T06:03:05.754Z,84.40
2019-03-02T06:04:05.836Z,84.40
2019-03-02T06:05:05.998Z,84.50
2019-03-02T06:06:07.769Z,84.60
2019-03-02T06:07:08.305Z,84.60
2019-03-02T06:08:05.333Z,84.60
2019-03-02T06:09:13.704Z,84.60
2019-03-02T06:10:05.764Z,84.60
2019-03-02T06:11:07.249Z,84.60
2019-03-02T06:12:05.440Z,84.60
2019-03-02T06:13:05.534Z,84.70
2019-03-02T06:14:08.389Z,84.80
2019-03-02T06:15:08.634Z,84.80
2019-03-02T06:16:05.859Z,84.90
2019-03-02T06:17:05.073Z,85.00
2019-03-02T06:18:08.774Z,85.00
2019-03-02T06:19:07.634Z,85.00
2019-03-02T06:20:10.833Z,85.10
2019-03-02T06:21:10.743Z,85.10
2019-03-02T06:22:05.046Z,85.20
2019-03-02T06:23:05.320Z,85.20
2019-03-02T06:24:06.825Z,85.20
2019-03-02T06:25:04.970Z,85.10
2019-03-02T06:26:05.052Z,85.20
2019-03-02T06:27:10.826Z,85.20
2019-03-02T06:28:05.569Z,85.20
2019-03-02T06:29:08.377Z,85.30
2019-03-02T06:30:09.357Z,85.30
2019-03-02T06:31:08.137Z,85.30
2019-03-02T06:32:07.810Z,85.30
2019-03-02T06:33:09.635Z,85.40
2019-03-02T06:34:08.309Z,85.40
2019-03-02T06:35:05.325Z,85.30
2019-03-02T06:36:10.107Z,85.40
2019-03-02T06:37:08.052Z,85.60
2019-03-02T06:38:05.102Z,85.60
2019-03-02T06:39:09.107Z,85.60
2019-03-02T06:40:05.217Z,85.60
2019-03-02T06:41:05.314Z,85.50
2019-03-02T06:42:09.790Z,85.50
2019-03-02T06:43:05.166Z,85.50
2019-03-02T06:44:08.091Z,85.50
2019-03-02T06:45:12.912Z,85.50
2019-03-02T06:46:07.653Z,85.40
2019-03-02T06:47:06.145Z,85.40
2019-03-02T06:48:10.720Z,85.40
2019-03-02T06:49:07.849Z,85.50
2019-03-02T06:50:07.711Z,85.50
2019-03-02T06:51:11.173Z,85.50
2019-03-02T06:52:05.673Z,85.50
2019-03-02T06:53:05.877Z,85.60
2019-03-02T06:54:05.068Z,85.60
2019-03-02T06:55:07.721Z,85.80
2019-03-02T06:56:05.679Z,85.80
2019-03-02T06:57:14.000Z,85.70
2019-03-02T06:58:05.377Z,85.70
2019-03-02T06:59:05.548Z,85.60
2019-03-02T07:00:13.911Z,85.60
2019-03-02T07:01:05.199Z,85.60
2019-03-02T07:02:08.219Z,85.80
2019-03-02T07:03:10.048Z,85.60
2019-03-02T07:04:07.984Z,85.70
2019-03-02T07:05:07.914Z,85.80
2019-03-02T07:06:11.613Z,85.70
2019-03-02T07:07:10.994Z,85.60
2019-03-02T07:08:07.522Z,85.60
2019-03-02T07:09:09.400Z,85.60
2019-03-02T07:10:05.650Z,85.60
2019-03-02T07:11:05.709Z,85.70
2019-03-02T07:12:09.374Z,85.70
2019-03-02T07:13:05.602Z,85.70
2019-03-02T07:14:05.797Z,85.80
2019-03-02T07:15:08.184Z,85.70
2019-03-02T07:16:05.582Z,85.80
2019-03-02T07:17:08.299Z,85.80
2019-03-02T07:18:08.089Z,85.80
2019-03-02T07:19:05.331Z,85.90
2019-03-02T07:20:08.010Z,86.00
2019-03-02T07:21:06.918Z,85.90
2019-03-02T07:22:13.471Z,86.10
2019-03-02T07:23:08.157Z,86.10
2019-03-02T07:24:05.079Z,86.10
2019-03-02T07:25:06.420Z,86.10
2019-03-02T07:26:05.646Z,86.10
2019-03-02T07:27:08.277Z,86.30
2019-03-02T07:28:07.408Z,86.20
2019-03-02T07:29:05.657Z,86.20
2019-03-02T07:30:05.065Z,86.10
2019-03-02T07:31:05.259Z,86.30
2019-03-02T07:32:10.490Z,86.30
2019-03-02T07:33:05.534Z,86.30
2019-03-02T07:34:09.809Z,86.30
2019-03-02T07:35:06.058Z,86.30
2019-03-02T07:36:10.353Z,86.40
2019-03-02T07:37:09.076Z,86.40
2019-03-02T07:38:05.513Z,86.40
2019-03-02T07:39:05.686Z,86.40
2019-03-02T07:40:10.133Z,86.40
2019-03-02T07:41:07.549Z,86.40
2019-03-02T07:42:05.804Z,86.40
2019-03-02T07:43:09.639Z,86.40
2019-03-02T07:44:05.058Z,86.50
2019-03-02T07:45:05.203Z,86.50
2019-03-02T07:46:11.749Z,86.50
2019-03-02T07:47:05.112Z,86.50
2019-03-02T07:48:07.957Z,86.50
2019-03-02T07:49:14.264Z,86.50
2019-03-02T07:50:05.311Z,86.40
2019-03-02T07:51:06.762Z,86.40
2019-03-02T07:52:08.547Z,86.40
2019-03-02T07:53:05.650Z,86.50
2019-03-02T07:54:07.347Z,86.40
2019-03-02T07:55:08.106Z,86.40
2019-03-02T07:56:05.143Z,86.40
2019-03-02T07:57:09.998Z,86.40
2019-03-02T07:58:07.809Z,86.50
2019-03-02T07:59:05.858Z,86.60
2019-03-02T08:00:06.628Z,86.50
2019-03-02T08:01:17.730Z,86.50
2019-03-02T08:02:07.753Z,86.50
2019-03-02T08:03:06.094Z,86.50
2019-03-02T08:04:07.810Z,86.60
2019-03-02T08:05:05.789Z,86.50
2019-03-02T08:06:05.925Z,86.60
2019-03-02T08:07:06.162Z,86.60
2019-03-02T08:08:07.373Z,86.70
2019-03-02T08:09:05.592Z,86.60
2019-03-02T08:10:05.713Z,86.70
2019-03-02T08:11:05.857Z,86.70
2019-03-02T08:12:07.537Z,86.70
2019-03-02T08:13:05.875Z,86.70
2019-03-02T08:14:12.232Z,86.80
2019-03-02T08:15:05.361Z,86.80
2019-03-02T08:16:08.132Z,86.80
2019-03-02T08:17:05.278Z,86.80
2019-03-02T08:18:08.183Z,86.80
2019-03-02T08:19:05.389Z,86.80
2019-03-02T08:20:08.205Z,86.90
2019-03-02T08:21:05.378Z,86.90
2019-03-02T08:22:10.986Z,86.80
2019-03-02T08:23:07.836Z,86.90
2019-03-02T08:24:09.035Z,87.00
2019-03-02T08:25:07.648Z,86.80
2019-03-02T08:26:06.005Z,86.80
2019-03-02T08:27:05.082Z,86.80
2019-03-02T08:28:09.886Z,87.00
2019-03-02T08:29:05.199Z,87.00
2019-03-02T08:30:08.097Z,87.00
2019-03-02T08:31:08.900Z,87.00
2019-03-02T08:32:05.903Z,87.20
2019-03-02T08:33:07.698Z,87.10
2019-03-02T08:34:09.658Z,87.20
2019-03-02T08:35:05.072Z,87.20
2019-03-02T08:36:05.322Z,87.20
2019-03-02T08:37:05.447Z,87.10
2019-03-02T08:38:06.689Z,87.10
2019-03-02T08:39:10.633Z,87.10
2019-03-02T08:40:05.129Z,87.00
2019-03-02T08:41:07.809Z,87.00
2019-03-02T08:42:12.057Z,86.90
2019-03-02T08:43:05.224Z,87.00
2019-03-02T08:44:07.911Z,87.00
2019-03-02T08:45:06.778Z,86.90
2019-03-02T08:46:08.750Z,86.90
2019-03-02T08:47:09.867Z,87.00
2019-03-02T08:48:05.221Z,86.90
2019-03-02T08:49:07.179Z,87.10
2019-03-02T08:50:06.133Z,86.90
2019-03-02T08:51:07.907Z,87.00
2019-03-02T08:52:08.628Z,87.00
2019-03-02T08:53:05.736Z,87.00
2019-03-02T08:54:06.050Z,87.00
2019-03-02T08:55:07.871Z,87.00
2019-03-02T08:56:11.834Z,87.00
2019-03-02T08:57:07.648Z,87.00
2019-03-02T08:58:05.687Z,87.00
2019-03-02T08:59:06.008Z,87.00
2019-03-02T09:00:05.159Z,87.00
2019-03-02T09:01:07.958Z,87.00
2019-03-02T09:02:06.025Z,87.00
2019-03-02T09:03:05.127Z,86.90
2019-03-02T09:04:05.198Z,87.00
2019-03-02T09:05:05.365Z,87.00
2019-03-02T09:06:12.085Z,87.10
2019-03-02T09:07:11.370Z,87.00
2019-03-02T09:08:05.709Z,87.00
2019-03-02T09:09:08.464Z,87.10
2019-03-02T09:10:14.504Z,86.90
2019-03-02T09:11:08.137Z,87.00
2019-03-02T09:12:07.787Z,86.90
2019-03-02T09:13:05.906Z,86.90
2019-03-02T09:14:12.576Z,86.90
2019-03-02T09:15:05.884Z,86.80
2019-03-02T09:16:06.713Z,86.80
2019-03-02T09:17:05.149Z,86.80
2019-03-02T09:18:07.798Z,86.80
2019-03-02T09:19:05.804Z,86.80
2019-03-02T09:20:07.899Z,86.80
2019-03-02T09:21:12.266Z,86.80
2019-03-02T09:22:07.603Z,86.80
2019-03-02T09:23:05.591Z,86.70
2019-03-02T09:24:05.696Z,86.80
2019-03-02T09:25:05.600Z,86.80
2019-03-02T09:26:05.937Z,86.80
2019-03-02T09:27:05.170Z,86.80
2019-03-02T09:28:05.379Z,86.70
2019-03-02T09:29:05.580Z,86.80
2019-03-02T09:30:11.158Z,86.60
2019-03-02T09:31:05.224Z,86.60
2019-03-02T09:32:10.872Z,86.50
2019-03-02T09:33:08.388Z,86.60
2019-03-02T09:34:05.490Z,86.60
2019-03-02T09:35:05.791Z,86.60
2019-03-02T09:36:06.048Z,86.60
2019-03-02T09:37:08.492Z,86.60
2019-03-02T09:38:05.695Z,86.60
2019-03-02T09:39:05.837Z,86.60
2019-03-02T09:40:06.534Z,86.50
2019-03-02T09:41:05.736Z,86.40
2019-03-02T09:42:05.292Z,86.50
2019-03-02T09:43:08.360Z,86.50
2019-03-02T09:44:05.476Z,86.50
2019-03-02T09:45:12.507Z,86.50
2019-03-02T09:46:07.898Z,86.40
2019-03-02T09:47:10.845Z,86.30
2019-03-02T09:48:05.660Z,86.20
2019-03-02T09:49:07.787Z,86.20
2019-03-02T09:50:05.945Z,86.20
2019-03-02T09:51:05.064Z,86.30
2019-03-02T09:52:07.536Z,86.10
2019-03-02T09:53:05.612Z,86.00
2019-03-02T09:54:08.263Z,86.00
2019-03-02T09:55:07.808Z,86.00
2019-03-02T09:56:08.325Z,86.00
2019-03-02T09:57:05.305Z,85.90
2019-03-02T09:58:06.794Z,85.80
2019-03-02T09:59:08.447Z,85.60
2019-03-02T10:00:05.639Z,85.60
2019-03-02T10:01:08.275Z,85.50
2019-03-02T10:02:05.243Z,85.60
2019-03-02T10:03:05.636Z,85.50
2019-03-02T10:04:10.909Z,85.60
2019-03-02T10:05:05.939Z,85.50
2019-03-02T10:06:05.023Z,85.70
2019-03-02T10:07:05.304Z,85.60
2019-03-02T10:08:05.504Z,85.50
2019-03-02T10:09:05.017Z,85.50
2019-03-02T10:10:05.139Z,85.40
2019-03-02T10:11:07.396Z,85.40
2019-03-02T10:12:05.590Z,85.30
2019-03-02T10:13:05.735Z,85.30
2019-03-02T10:14:05.912Z,85.20
2019-03-02T10:15:05.006Z,85.20
2019-03-02T10:16:06.070Z,85.20
2019-03-02T10:17:07.784Z,85.20
2019-03-02T10:18:05.838Z,85.30
2019-03-02T10:19:05.978Z,85.00
2019-03-02T10:20:06.821Z,85.00
2019-03-02T10:21:06.038Z,84.80
2019-03-02T10:22:07.683Z,84.40
2019-03-02T10:23:07.181Z,84.40
2019-03-02T10:24:05.290Z,84.30
2019-03-02T10:25:10.585Z,84.20
2019-03-02T10:26:08.796Z,84.40
2019-03-02T10:27:06.471Z,83.90
2019-03-02T10:28:05.710Z,83.80
2019-03-02T10:29:11.781Z,83.50
2019-03-02T10:30:07.540Z,83.30
2019-03-02T10:31:06.955Z,83.20
2019-03-02T10:32:05.210Z,83.00
2019-03-02T10:33:05.363Z,83.00
2019-03-02T10:34:07.713Z,83.00
2019-03-02T10:35:05.874Z,82.90
2019-03-02T10:36:10.075Z,82.90
2019-03-02T10:37:08.686Z,82.90
2019-03-02T10:38:05.900Z,82.80
2019-03-02T10:39:10.128Z,82.40
2019-03-02T10:40:08.813Z,82.40
2019-03-02T10:41:06.673Z,82.40
2019-03-02T10:42:05.427Z,82.20
2019-03-02T10:43:10.598Z,81.80
2019-03-02T10:44:08.492Z,81.80
2019-03-02T10:45:10.596Z,81.70
2019-03-02T10:46:05.565Z,81.70
2019-03-02T10:47:05.792Z,81.60
2019-03-02T10:48:06.047Z,81.70
2019-03-02T10:49:09.844Z,81.50
2019-03-02T10:50:05.870Z,81.40
2019-03-02T10:51:05.047Z,81.30
2019-03-02T10:52:05.374Z,81.40
2019-03-02T10:53:05.586Z,81.40
2019-03-02T10:54:05.644Z,81.10
2019-03-02T10:55:12.376Z,81.10
2019-03-02T10:56:06.425Z,80.90
2019-03-02T10:57:08.070Z,80.40
2019-03-02T10:58:05.202Z,80.30
2019-03-02T10:59:08.026Z,80.30
2019-03-02T11:00:05.079Z,80.30
2019-03-02T11:01:08.948Z,80.10
2019-03-02T11:02:05.054Z,80.10
2019-03-02T11:03:05.258Z,80.30
2019-03-02T11:04:09.085Z,80.50
2019-03-02T11:05:05.259Z,80.60
2019-03-02T11:06:07.560Z,80.60
2019-03-02T11:07:12.836Z,80.60
2019-03-02T11:08:05.207Z,80.50
2019-03-02T11:09:05.346Z,80.30
2019-03-02T11:10:05.530Z,80.30
2019-03-02T11:11:05.819Z,80.30
2019-03-02T11:12:08.355Z,80.40
2019-03-02T11:13:07.963Z,80.30
2019-03-02T11:14:04.955Z,80.30
2019-03-02T11:15:08.648Z,80.20
2019-03-02T11:16:05.896Z,80.30
2019-03-02T11:17:05.084Z,80.20
2019-03-02T11:18:05.417Z,80.30
2019-03-02T11:19:11.378Z,80.40
2019-03-02T11:20:08.586Z,80.20
2019-03-02T11:21:05.699Z,80.20
2019-03-02T11:22:05.858Z,80.10
2019-03-02T11:23:05.000Z,79.60
2019-03-02T11:24:05.146Z,79.70
2019-03-02T11:25:05.617Z,79.80
2019-03-02T11:26:08.373Z,79.60
2019-03-02T11:27:13.039Z,79.70
2019-03-02T11:28:05.450Z,79.70
2019-03-02T11:29:05.630Z,79.80
2019-03-02T11:30:08.260Z,79.70
2019-03-02T11:31:05.296Z,79.70
2019-03-02T11:32:08.046Z,79.80
2019-03-02T11:33:04.998Z,79.80
2019-03-02T11:34:05.256Z,80.00
2019-03-02T11:35:10.302Z,79.90
2019-03-02T11:36:13.790Z,79.80
2019-03-02T11:37:05.081Z,79.70
2019-03-02T11:38:07.797Z,79.70
2019-03-02T11:39:08.349Z,79.70
2019-03-02T11:40:07.871Z,79.70
2019-03-02T11:41:10.327Z,79.70
2019-03-02T11:42:05.623Z,79.70
2019-03-02T11:43:05.875Z,79.70
2019-03-02T11:44:05.065Z,79.60
2019-03-02T11:45:05.295Z,79.60
2019-03-02T11:46:05.525Z,79.40
2019-03-02T11:47:06.043Z,79.20
2019-03-02T11:48:17.017Z,78.80
2019-03-02T11:49:05.278Z,78.80
2019-03-02T11:50:05.440Z,79.10
2019-03-02T11:51:08.147Z,79.20
2019-03-02T11:52:05.161Z,79.10
2019-03-02T11:53:07.837Z,79.00
2019-03-02T11:54:13.535Z,78.90
2019-03-02T11:55:05.653Z,78.90
2019-03-02T11:56:07.612Z,78.90
2019-03-02T11:57:08.326Z,78.90
2019-03-02T11:58:05.512Z,78.80
2019-03-02T11:59:09.275Z,78.40
2019-03-02T12:00:05.913Z,78.10
2019-03-02T12:01:05.209Z,77.40
2019-03-02T12:02:15.082Z,77.00
2019-03-02T12:03:13.211Z,76.60
2019-03-02T12:04:05.250Z,76.60
2019-03-02T12:05:09.550Z,76.50
2019-03-02T12:06:07.220Z,76.50
2019-03-02T12:07:05.567Z,76.30
2019-03-02T12:08:05.859Z,76.30
2019-03-02T12:09:05.057Z,76.30
2019-03-02T12:10:06.323Z,76.40
2019-03-02T12:11:10.375Z,76.30
2019-03-02T12:12:05.613Z,76.40
2019-03-02T12:13:07.932Z,76.40
2019-03-02T12:14:09.919Z,76.40
2019-03-02T12:15:05.250Z,76.20
2019-03-02T12:16:07.886Z,76.50
2019-03-02T12:17:06.530Z,76.50
2019-03-02T12:18:07.997Z,76.70
2019-03-02T12:19:05.743Z,76.70
2019-03-02T12:20:09.751Z,76.40
2019-03-02T12:21:05.054Z,76.20
2019-03-02T12:22:07.833Z,76.60
2019-03-02T12:23:05.976Z,76.60
2019-03-02T12:24:15.383Z,76.70
2019-03-02T12:25:06.004Z,76.70
2019-03-02T12:26:10.914Z,76.60
2019-03-02T12:27:05.738Z,76.50
2019-03-02T12:28:08.477Z,76.20
2019-03-02T12:29:09.108Z,76.20
2019-03-02T12:30:05.803Z,76.30
2019-03-02T12:31:08.579Z,76.30
2019-03-02T12:32:08.829Z,76.30
2019-03-02T12:33:07.602Z,76.20
2019-03-02T12:34:07.832Z,76.10
2019-03-02T12:35:08.520Z,76.20
2019-03-02T12:36:05.594Z,76.20
2019-03-02T12:37:08.270Z,76.30
2019-03-02T12:38:11.428Z,76.30
2019-03-02T12:39:07.556Z,76.20
2019-03-02T12:40:05.655Z,76.30
2019-03-02T12:41:05.837Z,76.30
2019-03-02T12:42:06.046Z,76.50
2019-03-02T12:43:08.569Z,76.60
2019-03-02T12:44:07.532Z,76.60
2019-03-02T12:45:10.495Z,76.70
2019-03-02T12:46:09.305Z,76.70
2019-03-02T12:47:05.562Z,76.70
2019-03-02T12:48:08.283Z,76.80
2019-03-02T12:49:10.871Z,76.80
2019-03-02T12:50:07.678Z,76.90
2019-03-02T12:51:05.639Z,76.80
2019-03-02T12:52:08.310Z,76.70
2019-03-02T12:53:07.884Z,76.70